Time;durP1;ratioP1;P1;durP2;ratioP2;P2;SDS_P1;SDS_P2;PMS_P1;PMS_P2;Temp;Humidity;BMP_temperature;BMP_pressure;BME280_temperature;BME280_humidity;BME280_pressure;Samples;Min_cycle;Max_cycle;Signal;HPM_P1;HPM_P2
2022/01/23 00:01:50;;;;;;;4.78;2.58;;;;;;;20.47;34.97;103508.78;7314894;19;128929;-67
2022/01/23 00:04:18;;;;;;;4.00;2.72;;;;;;;20.47;35.21;103506.00;7318773;19;130987;-68
2022/01/23 00:06:46;;;;;;;5.85;3.10;;;;;;;20.45;35.24;103505.31;7313222;19;130583;-67
2022/01/23 00:09:15;;;;;;;4.90;2.80;;;;;;;20.44;35.05;103500.81;7315275;19;129661;-67
2022/01/23 00:11:49;;;;;;;5.13;2.78;;;;;;;20.43;35.11;103513.03;7314929;19;128854;-68
2022/01/23 00:19:40;;;;;;;3.47;2.33;;;;;;;20.38;35.07;103509.97;7315402;19;128977;-67
2022/01/23 00:22:11;;;;;;;3.75;2.40;;;;;;;20.36;35.22;103510.16;7316646;19;129062;-68
2022/01/23 00:33:06;;;;;;;4.38;2.60;;;;;;;20.28;35.25;103507.47;7310884;19;131473;-67
2022/01/23 00:35:35;;;;;;;4.13;2.55;;;;;;;20.26;35.24;103498.47;7313489;19;130580;-67
2022/01/23 00:38:03;;;;;;;3.47;2.17;;;;;;;20.24;35.11;103500.59;7313028;19;130519;-67
2022/01/23 00:40:32;;;;;;;3.70;2.38;;;;;;;20.23;35.47;103498.88;7314967;19;128948;-67
2022/01/23 00:43:00;;;;;;;4.53;2.78;;;;;;;20.22;35.05;103491.59;7314727;19;129168;-68
2022/01/23 00:45:33;;;;;;;3.55;2.33;;;;;;;20.21;35.34;103489.88;7314797;19;130987;-67
2022/01/23 00:48:06;;;;;;;3.03;2.20;;;;;;;20.21;35.04;103495.44;7317312;19;130884;-67
2022/01/23 00:50:36;;;;;;;3.33;2.30;;;;;;;20.19;35.31;103492.81;7312782;19;130058;-67
2022/01/23 00:53:10;;;;;;;4.40;2.67;;;;;;;20.18;35.50;103490.25;7316753;19;128907;-68
2022/01/23 00:55:38;;;;;;;4.18;2.50;;;;;;;20.17;35.10;103475.50;7314594;19;130637;-67
2022/01/23 00:58:05;;;;;;;3.03;2.10;;;;;;;20.15;35.12;103485.94;7315867;19;130578;-67
2022/01/23 01:00:32;;;;;;;3.88;2.28;;;;;;;20.15;35.32;103480.41;7312933;19;130095;-68
2022/01/23 01:02:59;;;;;;;4.55;2.42;;;;;;;20.13;35.31;103482.50;7314322;19;128903;-67
2022/01/23 01:05:26;;;;;;;4.28;2.55;;;;;;;20.13;35.13;103479.72;7315816;19;130601;-68
2022/01/23 01:07:55;;;;;;;3.35;2.30;;;;;;;20.11;35.47;103485.50;7314321;19;131560;-67
2022/01/23 01:10:28;;;;;;;3.42;2.42;;;;;;;20.11;35.13;103485.50;7313749;19;129991;-67
2022/01/23 01:12:59;;;;;;;3.92;2.55;;;;;;;20.11;35.33;103479.94;7312606;19;130816;-67
2022/01/23 01:15:40;;;;;;;4.75;2.65;;;;;;;20.09;35.39;103467.25;7314565;19;131536;-67
2022/01/23 01:32:01;;;;;;;3.42;2.25;;;;;;;19.98;35.62;103458.34;7315148;19;129987;-67
2022/01/23 01:34:38;;;;;;;4.03;2.60;;;;;;;19.98;35.39;103451.94;7313401;19;129411;-67
2022/01/23 01:37:05;;;;;;;3.88;2.30;;;;;;;19.97;35.58;103442.72;7313211;19;130567;-67
2022/01/23 01:39:41;;;;;;;3.28;2.15;;;;;;;19.96;35.66;103446.56;7310911;19;131263;-65
2022/01/23 01:42:08;;;;;;;4.47;2.20;;;;;;;19.96;35.60;103454.03;7314572;19;129332;-65
2022/01/23 01:44:35;;;;;;;4.47;2.42;;;;;;;19.94;35.20;103445.88;7313181;19;128989;-65
2022/01/23 01:47:02;;;;;;;3.95;2.50;;;;;;;19.94;35.20;103448.66;7313634;19;130658;-65
2022/01/23 01:49:31;;;;;;;4.00;2.20;;;;;;;19.92;35.26;103456.34;7313727;19;130471;-64
2022/01/23 01:51:59;;;;;;;6.40;2.17;;;;;;;19.90;35.19;103455.69;7315472;19;129398;-65
2022/01/23 01:54:29;;;;;;;5.53;2.47;;;;;;;19.89;35.29;103453.94;7315033;19;130760;-65
2022/01/23 01:57:10;;;;;;;3.47;2.40;;;;;;;19.89;35.48;103458.63;7311753;19;131543;-65
2022/01/23 02:10:45;;;;;;;3.35;2.40;;;;;;;19.83;35.73;103465.81;7311109;19;130611;-65
2022/01/23 02:13:15;;;;;;;2.90;2.20;;;;;;;19.81;35.46;103468.81;7312654;19;130280;-65
2022/01/23 02:51:45;;;;;;;2.70;2.17;;;;;;;19.64;35.56;103465.38;7308943;19;130671;-65
2022/01/23 02:56:46;;;;;;;3.28;2.25;;;;;;;19.62;35.36;103467.47;7311476;19;128916;-65
2022/01/23 02:59:22;;;;;;;2.58;2.00;;;;;;;19.61;35.65;103462.97;7310467;19;129379;-65
2022/01/23 03:04:37;;;;;;;3.13;2.00;;;;;;;19.60;35.72;103438.16;7309362;19;131546;-66
2022/01/23 03:10:01;;;;;;;4.40;2.25;;;;;;;19.59;35.69;103448.41;7309051;19;129364;-66
2022/01/23 03:15:31;;;;;;;3.17;2.00;;;;;;;19.57;35.70;103428.28;7311621;19;130784;-65
2022/01/23 03:26:24;;;;;;;2.97;2.10;;;;;;;19.52;35.50;103436.34;7306412;19;130670;-65
2022/01/23 03:31:32;;;;;;;3.38;2.20;;;;;;;19.51;35.78;103442.94;7309116;19;128935;-65
2022/01/23 03:34:00;;;;;;;2.90;1.95;;;;;;;19.52;35.57;103441.91;7311147;19;130622;-65
2022/01/23 03:36:26;;;;;;;3.63;2.50;;;;;;;19.52;35.45;103436.34;7310522;19;131133;-65
2022/01/23 03:38:53;;;;;;;2.67;2.15;;;;;;;19.50;35.61;103441.22;7308318;19;129807;-65
2022/01/23 03:41:20;;;;;;;2.10;1.67;;;;;;;19.50;35.39;103439.31;7311413;19;128995;-66
2022/01/23 03:43:46;;;;;;;2.58;1.92;;;;;;;19.49;35.33;103439.50;7307455;19;130917;-65
2022/01/23 03:51:44;;;;;;;3.20;2.10;;;;;;;19.47;35.61;103445.25;7309682;19;128810;-65
2022/01/23 03:54:11;;;;;;;2.20;1.92;;;;;;;19.46;35.40;103449.09;7312073;19;130598;-65
2022/01/23 03:56:37;;;;;;;3.83;2.58;;;;;;;19.46;35.73;103445.44;7307425;19;130735;-65
2022/01/23 03:59:04;;;;;;;3.08;1.80;;;;;;;19.46;35.57;103449.09;7309814;19;129253;-65
2022/01/23 04:01:31;;;;;;;2.60;2.15;;;;;;;19.46;35.36;103442.66;7307311;19;129276;-65
2022/01/23 04:04:02;;;;;;;2.55;1.88;;;;;;;19.45;35.58;103454.81;7310719;19;130691;-65
2022/01/23 04:06:28;;;;;;;2.20;2.00;;;;;;;19.44;35.64;103453.97;7314963;19;130625;-65
2022/01/23 04:08:55;;;;;;;2.83;2.13;;;;;;;19.44;35.78;103447.56;7316828;19;128982;-65
2022/01/23 04:11:22;;;;;;;3.15;1.90;;;;;;;19.43;35.53;103462.50;7313775;19;128833;-66
2022/01/23 04:14:00;;;;;;;2.53;2.20;;;;;;;19.42;35.36;103464.38;7314941;19;130677;-65
2022/01/23 04:35:21;;;;;;;3.03;2.10;;;;;;;19.35;35.70;103460.66;7316857;19;131505;-65
2022/01/23 04:46:35;;;;;;;4.47;3.50;;;;;;;19.31;35.49;103468.50;7313777;19;130881;-65
2022/01/23 05:00:05;;;;;;;3.25;2.63;;;;;;;19.27;35.50;103458.81;7317208;19;130607;-65
2022/01/23 05:05:11;;;;;;;3.40;2.70;;;;;;;19.24;35.52;103461.97;7316638;19;129228;-65
2022/01/23 05:07:43;;;;;;;2.47;2.22;;;;;;;19.25;35.44;103471.16;7313158;19;131343;-65
2022/01/23 05:10:10;;;;;;;3.03;2.10;;;;;;;19.26;35.68;103478.44;7315371;19;131197;-66
2022/01/23 05:12:37;;;;;;;2.65;2.10;;;;;;;19.24;35.62;103473.06;7312676;19;128986;-65
2022/01/23 05:15:06;;;;;;;2.80;2.17;;;;;;;19.23;35.48;103476.88;7314932;19;129056;-64
2022/01/23 05:17:34;;;;;;;3.53;2.03;;;;;;;19.23;35.67;103471.34;7311276;19;130741;-65
2022/01/23 05:20:01;;;;;;;4.25;2.13;;;;;;;19.22;35.60;103472.38;7313551;19;130637;-65
2022/01/23 05:25:10;;;;;;;2.45;2.15;;;;;;;19.21;35.47;103474.31;7313081;19;128862;-65
2022/01/23 05:27:36;;;;;;;2.63;1.98;;;;;;;19.21;35.24;103467.88;7316006;19;130567;-66
2022/01/23 05:30:04;;;;;;;3.40;2.10;;;;;;;19.21;35.42;103468.75;7312634;19;130835;-65
2022/01/23 05:32:38;;;;;;;2.28;2.08;;;;;;;19.20;35.61;103463.38;7314589;19;128854;-64
2022/01/23 05:35:07;;;;;;;3.80;2.10;;;;;;;19.20;35.42;103455.06;7311983;19;129396;-65
2022/01/23 05:37:35;;;;;;;3.45;2.20;;;;;;;19.19;35.68;103459.72;7313996;19;131198;-65
2022/01/23 05:40:03;;;;;;;2.72;2.17;;;;;;;19.18;35.67;103459.94;7314358;19;131235;-66
2022/01/23 05:42:30;;;;;;;2.63;2.17;;;;;;;19.18;35.19;103460.78;7314662;19;129920;-65
2022/01/23 05:44:56;;;;;;;3.30;2.22;;;;;;;19.17;35.29;103459.06;7315910;19;128806;-65
2022/01/23 05:47:24;;;;;;;1.92;1.73;;;;;;;19.19;35.54;103458.88;7312443;19;130565;-65
2022/01/23 05:49:51;;;;;;;2.63;2.08;;;;;;;19.17;35.40;103455.44;7314977;19;130726;-65
2022/01/23 05:52:17;;;;;;;2.08;1.88;;;;;;;19.16;35.46;103454.53;7312105;19;129076;-65
2022/01/23 05:54:44;;;;;;;2.70;1.77;;;;;;;19.16;35.21;103462.88;7314618;19;129155;-65
2022/01/23 05:57:11;;;;;;;3.05;2.15;;;;;;;19.15;35.67;103463.91;7311467;19;130652;-65
2022/01/23 05:59:38;;;;;;;2.88;1.98;;;;;;;19.14;35.57;103466.91;7313033;19;131367;-65
2022/01/23 06:02:04;;;;;;;3.85;2.10;;;;;;;19.13;35.51;103463.28;7310828;19;129396;-65
2022/01/23 06:04:32;;;;;;;2.40;2.10;;;;;;;19.13;35.23;103456.84;7312628;19;128959;-65
2022/01/23 06:06:59;;;;;;;3.15;2.28;;;;;;;19.13;35.70;103459.63;7313070;19;130601;-65
2022/01/23 06:09:27;;;;;;;4.65;3.00;;;;;;;19.12;35.58;103461.53;7312417;19;130661;-66
2022/01/23 06:11:53;;;;;;;4.50;2.83;;;;;;;19.11;35.46;103459.81;7312865;19;129078;-65
2022/01/23 06:14:21;;;;;;;2.05;1.80;;;;;;;19.12;35.58;103460.66;7310277;19;129410;-65
2022/01/23 06:16:48;;;;;;;2.42;2.10;;;;;;;19.11;35.48;103470.03;7313921;19;130602;-65
2022/01/23 06:19:15;;;;;;;2.75;2.20;;;;;;;19.10;35.20;103465.53;7310652;19;130529;-65
2022/01/23 06:21:41;;;;;;;2.75;2.10;;;;;;;19.10;35.66;103468.31;7314125;19;129258;-65
2022/01/23 06:24:22;;;;;;;2.45;2.00;;;;;;;19.08;35.31;103463.81;7311726;19;128992;-65
2022/01/23 06:26:52;;;;;;;3.35;2.17;;;;;;;19.08;35.34;103472.13;7311640;19;130593;-65
2022/01/23 06:29:20;;;;;;;2.80;2.10;;;;;;;19.07;35.64;103462.13;7312449;19;130413;-66
2022/01/23 06:31:48;;;;;;;2.88;2.30;;;;;;;19.06;35.69;103460.38;7310781;19;128975;-65
2022/01/23 06:34:17;;;;;;;2.67;2.13;;;;;;;19.08;35.49;103462.97;7313625;19;128957;-66
2022/01/23 06:36:45;;;;;;;2.75;2.10;;;;;;;19.07;35.26;103466.78;7308723;19;130685;-65
2022/01/23 06:39:13;;;;;;;1.92;1.70;;;;;;;19.06;35.58;103463.16;7312523;19;130926;-65
2022/01/23 06:41:41;;;;;;;1.70;1.60;;;;;;;19.04;35.57;103468.03;7312104;19;129057;-65
2022/01/23 06:44:07;;;;;;;2.75;2.05;;;;;;;19.05;35.55;103469.75;7310351;19;129136;-65
2022/01/23 06:46:34;;;;;;;2.97;1.98;;;;;;;19.04;35.48;103476.34;7312922;19;130648;-65
2022/01/23 06:49:01;;;;;;;2.60;1.90;;;;;;;19.04;35.41;103481.91;7309636;19;130732;-65
2022/01/23 06:51:28;;;;;;;2.15;1.95;;;;;;;19.04;35.22;103490.22;7310886;19;129079;-65
2022/01/23 06:53:55;;;;;;;2.10;1.92;;;;;;;19.04;35.39;103484.69;7310211;19;129043;-65
2022/01/23 06:56:22;;;;;;;3.53;2.30;;;;;;;19.03;35.22;103493.16;7312164;19;130836;-65
2022/01/23 06:58:49;;;;;;;2.75;2.28;;;;;;;19.02;35.55;103497.88;7306944;19;130500;-65
2022/01/23 07:01:15;;;;;;;2.45;2.03;;;;;;;19.02;35.40;103497.88;7314034;19;128958;-65
2022/01/23 07:03:43;;;;;;;2.67;2.10;;;;;;;19.01;35.50;103501.69;7310032;19;128943;-65
2022/01/23 07:06:10;;;;;;;2.45;2.10;;;;;;;19.01;35.51;103510.00;7310684;19;130633;-64
2022/01/23 07:08:57;;;;;;;2.90;2.23;;;;;;;19.04;35.43;103511.53;7311507;19;132710;-65
2022/01/23 07:11:24;;;;;;;2.63;2.28;;;;;;;19.08;35.44;103513.75;7309681;19;131164;-66
2022/01/23 07:13:51;;;;;;;2.88;2.10;;;;;;;19.16;35.12;103523.06;7311681;19;128811;-65
2022/01/23 07:16:18;;;;;;;2.83;2.20;;;;;;;19.28;35.17;103518.84;7308748;19;131642;-65
2022/01/23 07:18:45;;;;;;;1.98;1.67;;;;;;;19.46;35.27;103517.59;7311076;19;130495;-66
2022/01/23 07:21:11;;;;;;;3.50;1.90;;;;;;;19.66;34.72;103517.94;7307291;19;129647;-65
2022/01/23 07:23:38;;;;;;;2.47;1.90;;;;;;;19.90;34.35;103518.69;7310625;19;129802;-65
2022/01/23 07:26:06;;;;;;;3.03;1.55;;;;;;;20.14;34.49;103517.56;7307105;19;131080;-65
2022/01/23 07:28:39;;;;;;;1.95;1.70;;;;;;;20.38;33.82;103523.88;7310914;19;130420;-65
2022/01/23 07:31:08;;;;;;;2.10;1.60;;;;;;;20.60;33.56;103522.84;7311034;19;131160;-66
2022/01/23 07:33:36;;;;;;;1.63;1.45;;;;;;;20.77;33.30;103522.63;7309968;19;129149;-65
2022/01/23 07:36:06;;;;;;;2.53;1.95;;;;;;;20.92;33.62;103519.78;7310127;19;130723;-65
2022/01/23 07:38:32;;;;;;;3.97;2.05;;;;;;;21.03;33.17;103524.81;7307433;19;131501;-65
2022/01/23 07:40:59;;;;;;;2.90;2.13;;;;;;;21.13;33.15;103521.69;7316907;19;128935;-65
2022/01/23 07:43:26;;;;;;;2.38;2.15;;;;;;;21.21;32.52;103521.53;7314118;19;128822;-65
2022/01/23 07:45:53;;;;;;;3.78;2.00;;;;;;;21.33;32.92;103526.56;7318219;19;131199;-64
2022/01/23 07:48:19;;;;;;;3.65;1.83;;;;;;;21.39;32.53;103524.88;7316092;19;131249;-64
2022/01/23 07:50:51;;;;;;;3.83;1.70;;;;;;;21.43;32.65;103532.63;7316823;19;129037;-64
2022/01/23 07:53:17;;;;;;;3.13;2.22;;;;;;;21.42;32.23;103530.91;7316951;19;130070;-65
2022/01/23 07:55:44;;;;;;;2.45;1.95;;;;;;;21.41;32.51;103540.34;7315437;19;130705;-64
2022/01/23 07:58:14;;;;;;;2.20;1.70;;;;;;;21.37;32.62;103539.03;7318740;19;130901;-65
2022/01/23 08:00:47;;;;;;;2.80;1.80;;;;;;;21.32;32.48;103538.75;7312834;19;130396;-65
2022/01/23 08:03:15;;;;;;;2.40;2.13;;;;;;;21.24;32.45;103534.19;7315369;19;128942;-65
2022/01/23 08:05:43;;;;;;;4.78;1.90;;;;;;;21.18;32.53;103535.84;7314302;19;131130;-65
2022/01/23 08:08:10;;;;;;;3.58;1.90;;;;;;;21.11;32.43;103539.66;7317223;19;131611;-65
2022/01/23 08:10:38;;;;;;;2.20;1.90;;;;;;;21.06;32.89;103548.59;7316901;19;129803;-65
2022/01/23 08:13:05;;;;;;;2.80;1.92;;;;;;;20.98;32.80;103540.38;7315995;19;128777;-65
2022/01/23 08:15:33;;;;;;;2.58;1.92;;;;;;;20.90;32.86;103541.38;7317969;19;130672;-64
2022/01/23 08:18:02;;;;;;;3.97;1.67;;;;;;;20.83;33.04;103555.22;7316372;19;130693;-65
2022/01/23 08:20:30;;;;;;;2.40;1.60;;;;;;;20.77;32.88;103550.44;7318219;19;130049;-65
2022/01/23 08:22:59;;;;;;;3.10;1.88;;;;;;;20.71;32.89;103548.41;7315974;19;129643;-65
2022/01/23 08:25:26;;;;;;;4.15;2.00;;;;;;;20.66;33.46;103548.16;7317049;19;130766;-65
2022/01/23 08:27:52;;;;;;;4.60;1.73;;;;;;;20.62;33.65;103555.16;7314195;19;130638;-65
2022/01/23 08:30:20;;;;;;;4.63;2.05;;;;;;;20.56;33.52;103557.66;7316955;19;128830;-65
2022/01/23 08:32:47;;;;;;;4.68;2.20;;;;;;;20.50;33.43;103555.66;7313370;19;129102;-65
2022/01/23 08:35:14;;;;;;;4.18;2.10;;;;;;;20.48;33.38;103552.22;7315006;19;131168;-65
2022/01/23 08:37:41;;;;;;;3.50;2.03;;;;;;;20.48;33.38;103549.44;7315826;19;131404;-65
2022/01/23 08:40:18;;;;;;;7.05;2.53;;;;;;;20.51;33.54;103556.50;7317987;19;129377;-65
2022/01/23 08:42:45;;;;;;;2.92;2.15;;;;;;;20.54;33.52;103557.00;7315834;19;130760;-65
2022/01/23 08:45:12;;;;;;;6.00;2.13;;;;;;;20.66;32.92;103562.06;7308864;19;131905;-65
2022/01/23 08:47:39;;;;;;;2.50;1.88;;;;;;;20.78;33.12;103562.44;7306420;19;130454;-65
2022/01/23 08:50:06;;;;;;;5.22;1.90;;;;;;;20.92;32.89;103564.31;7305348;19;128992;-65
2022/01/23 08:52:33;;;;;;;2.25;1.85;;;;;;;21.07;33.04;103558.66;7302809;19;129370;-65
2022/01/23 08:54:59;;;;;;;2.08;1.85;;;;;;;21.25;32.85;103569.31;7301356;19;131174;-65
2022/01/23 08:57:27;;;;;;;3.90;1.88;;;;;;;21.41;32.61;103557.06;7306608;19;130956;-65
2022/01/23 09:00:15;;;;;;;2.85;1.60;;;;;;;21.58;32.39;103567.91;7302439;19;129783;-65
2022/01/23 09:02:41;;;;;;;4.80;2.10;;;;;;;21.70;32.19;103563.50;7299070;19;129122;-65
2022/01/23 09:05:08;;;;;;;6.63;1.70;;;;;;;21.82;31.80;103564.66;7301128;19;130802;-65
2022/01/23 09:07:35;;;;;;;3.60;1.80;;;;;;;21.93;32.18;103571.59;7302907;19;132226;-65
2022/01/23 09:10:03;;;;;;;2.17;1.60;;;;;;;22.04;31.87;103574.88;7306084;19;128947;-65
2022/01/23 09:12:44;;;;;;;2.80;1.60;;;;;;;22.11;31.48;103568.28;7301353;19;129494;-65
2022/01/23 09:15:11;;;;;;;2.65;1.63;;;;;;;22.20;31.58;103577.34;7306387;19;132395;-65
2022/01/23 09:17:38;;;;;;;3.03;1.75;;;;;;;22.27;31.82;103572.69;7304380;19;130672;-65
2022/01/23 09:20:05;;;;;;;2.35;1.42;;;;;;;22.33;31.41;103579.34;7308058;19;129477;-65
2022/01/23 09:22:31;;;;;;;2.85;1.70;;;;;;;22.39;31.26;103566.50;7299282;19;129073;-65
2022/01/23 09:25:00;;;;;;;2.38;1.65;;;;;;;22.44;31.38;103569.53;7307761;19;131657;-65
2022/01/23 09:27:27;;;;;;;2.83;1.48;;;;;;;22.50;31.17;103565.06;7305007;19;131354;-65
2022/01/23 09:29:55;;;;;;;1.80;1.70;;;;;;;22.54;31.09;103572.81;7307451;19;129461;-65
2022/01/23 09:32:23;;;;;;;1.80;1.45;;;;;;;22.58;31.21;103578.81;7306652;19;129564;-64
2022/01/23 09:34:53;;;;;;;2.58;1.73;;;;;;;22.62;31.10;103577.34;7302190;19;130744;-65
2022/01/23 09:37:20;;;;;;;2.10;1.45;;;;;;;22.67;30.97;103588.72;7302793;19;132378;-65
2022/01/23 09:39:49;;;;;;;2.33;1.75;;;;;;;22.70;31.06;103587.44;7301287;19;129510;-65
2022/01/23 09:42:28;;;;;;;3.80;2.05;;;;;;;22.72;31.03;103583.38;7305531;19;129272;-65
2022/01/23 09:45:00;;;;;;;3.00;1.80;;;;;;;22.77;31.18;103587.47;7297174;19;131288;-65
2022/01/23 09:47:28;;;;;;;3.15;1.77;;;;;;;22.77;30.88;103581.91;7301863;19;131210;-66
2022/01/23 09:49:56;;;;;;;2.75;1.70;;;;;;;22.80;31.03;103582.31;7300069;19;129139;-65
2022/01/23 09:52:29;;;;;;;2.58;1.63;;;;;;;22.81;30.59;103594.34;7300712;19;130118;-65
2022/01/23 09:55:00;;;;;;;3.28;2.03;;;;;;;22.83;31.18;103593.03;7301809;19;133047;-66
2022/01/23 09:57:30;;;;;;;3.05;1.73;;;;;;;22.84;30.96;103588.34;7302147;19;131511;-66
2022/01/23 10:00:00;;;;;;;3.65;1.75;;;;;;;22.82;31.13;103584.91;7303800;19;129937;-65
2022/01/23 10:02:31;;;;;;;3.05;2.13;;;;;;;22.78;30.96;103583.59;7303918;19;129529;-65
2022/01/23 10:05:02;;;;;;;3.00;1.65;;;;;;;22.73;31.13;103584.22;7308500;19;130753;-65
2022/01/23 10:07:29;;;;;;;1.95;1.45;;;;;;;22.66;30.93;103587.00;7300462;19;130954;-65
2022/01/23 10:10:07;;;;;;;2.80;2.08;;;;;;;22.59;31.04;103588.91;7305051;19;128870;-65
2022/01/23 10:12:37;;;;;;;3.53;1.95;;;;;;;22.50;31.20;103581.78;7297110;19;129683;-65
2022/01/23 10:15:04;;;;;;;5.05;1.88;;;;;;;22.40;31.41;103583.03;7304170;19;131484;-65
2022/01/23 10:17:31;;;;;;;3.42;1.90;;;;;;;22.31;31.20;103578.69;7304429;19;130748;-65
2022/01/23 10:19:58;;;;;;;4.45;1.85;;;;;;;22.24;31.52;103586.19;7304943;19;129000;-65
2022/01/23 10:22:25;;;;;;;2.15;1.88;;;;;;;22.16;31.88;103580.72;7301758;19;131503;-66
2022/01/23 10:24:52;;;;;;;2.70;1.95;;;;;;;22.08;31.64;103585.41;7301189;19;131283;-64
2022/01/23 10:27:22;;;;;;;3.40;2.00;;;;;;;22.02;31.96;103586.25;7304884;19;131309;-65
2022/01/23 10:29:48;;;;;;;2.45;1.83;;;;;;;21.92;31.98;103580.16;7303272;19;129112;-65
2022/01/23 10:32:21;;;;;;;2.50;1.70;;;;;;;21.83;32.16;103583.13;7306334;19;128940;-65
2022/01/23 10:34:50;;;;;;;2.75;1.75;;;;;;;21.76;32.39;103579.44;7303267;19;131325;-64
2022/01/23 10:37:29;;;;;;;2.80;1.70;;;;;;;21.69;32.14;103577.66;7304615;19;132878;-65
2022/01/23 10:40:06;;;;;;;1.95;1.70;;;;;;;21.60;32.47;103582.50;7305794;19;129602;-65
2022/01/23 10:48:00;;;;;;;3.22;1.90;;;;;;;21.38;32.47;103579.75;7298186;19;129535;-65
2022/01/23 10:50:28;;;;;;;3.35;1.90;;;;;;;21.32;32.85;103580.53;7301137;19;128953;-65
2022/01/23 10:52:59;;;;;;;4.53;1.77;;;;;;;21.26;32.66;103575.78;7301832;19;130087;-65
2022/01/23 10:55:33;;;;;;;2.92;1.95;;;;;;;21.21;33.07;103574.44;7299002;19;131765;-65
2022/01/23 10:58:06;;;;;;;2.95;2.38;;;;;;;21.16;32.77;103582.53;7304401;19;129442;-65
2022/01/23 11:00:38;;;;;;;4.63;2.42;;;;;;;21.11;32.63;103567.50;7302943;19;130552;-65
2022/01/23 11:03:21;;;;;;;6.32;2.42;;;;;;;21.08;32.88;103579.03;7305670;19;131160;-65
2022/01/23 11:05:50;;;;;;;21.42;3.25;;;;;;;21.01;32.77;103571.44;7302702;19;131570;-65
2022/01/23 11:08:24;;;;;;;6.47;2.50;;;;;;;20.98;32.97;103571.88;7304858;19;131047;-65
2022/01/23 11:11:03;;;;;;;4.30;2.83;;;;;;;20.97;32.83;103574.84;7305383;19;128908;-65
2022/01/23 11:19:30;;;;;;;9.93;2.40;;;;;;;20.86;33.47;103560.38;7304586;19;130931;-66
2022/01/23 11:21:59;;;;;;;6.55;2.80;;;;;;;20.84;33.04;103559.72;7298227;19;130350;-64
2022/01/23 11:24:45;;;;;;;7.72;2.72;;;;;;;20.83;33.31;103557.16;7302269;19;129169;-65
2022/01/23 11:27:13;;;;;;;4.55;2.53;;;;;;;20.80;33.20;103557.53;7300229;19;130842;-64
2022/01/23 11:29:57;;;;;;;6.13;3.10;;;;;;;20.77;33.73;103555.13;7305804;19;130796;-64
2022/01/23 11:32:27;;;;;;;7.40;2.60;;;;;;;20.74;33.69;103550.81;7303151;19;129059;-65
2022/01/23 11:35:04;;;;;;;5.70;2.75;;;;;;;20.72;33.32;103555.69;7304302;19;129603;-65
2022/01/23 11:37:32;;;;;;;3.70;2.30;;;;;;;20.69;33.75;103547.75;7299187;19;131731;-65
2022/01/23 11:40:05;;;;;;;3.90;2.50;;;;;;;20.67;33.60;103547.09;7299726;19;131967;-65
2022/01/23 11:51:22;;;;;;;4.75;2.10;;;;;;;20.58;33.79;103530.50;7299790;19;130620;-65
2022/01/23 11:53:54;;;;;;;3.45;2.40;;;;;;;20.58;34.02;103535.22;7297780;19;129862;-65
2022/01/23 11:56:28;;;;;;;3.67;2.42;;;;;;;20.56;33.98;103531.78;7303662;19;129054;-64
2022/01/23 11:59:18;;;;;;;3.70;2.67;;;;;;;20.55;34.12;103530.94;7298903;19;130676;-64
2022/01/23 12:02:20;;;;;;;7.25;2.95;;;;;;;20.55;34.06;103530.03;7300818;19;131405;-64
2022/01/23 12:07:40;;;;;;;5.57;2.60;;;;;;;20.57;33.97;103534.34;7296284;19;130098;-65
2022/01/23 12:10:25;;;;;;;6.30;2.53;;;;;;;20.66;34.19;103528.69;7301537;19;131098;-64
2022/01/23 12:16:20;;;;;;;5.28;2.80;;;;;;;20.71;34.27;103523.38;7295693;19;137055;-64
2022/01/23 12:16:34;;;;;;;8.63;2.93;;;;;;;20.75;34.07;103517.25;7299564;19;130457;-65
2022/01/23 12:19:18;;;;;;;7.07;3.22;;;;;;;20.82;34.35;103520.09;7303850;19;129419;-66
2022/01/23 12:21:45;;;;;;;6.50;2.63;;;;;;;20.86;34.23;103520.59;7299686;19;130662;-65
2022/01/23 12:24:15;;;;;;;5.05;2.75;;;;;;;20.90;34.64;103517.22;7302856;19;130600;-66
2022/01/23 12:26:42;;;;;;;8.55;3.17;;;;;;;20.95;34.80;103513.81;7303944;19;129325;-67
2022/01/23 12:29:24;;;;;;;5.13;2.42;;;;;;;21.00;34.89;103510.44;7311108;19;128987;-66
2022/01/23 12:32:18;;;;;;;5.35;2.30;;;;;;;21.05;34.95;103507.91;7307079;19;131992;-64
2022/01/23 12:35:19;;;;;;;5.07;2.78;;;;;;;21.08;34.74;103512.22;7306305;19;131085;-65
2022/01/23 12:38:00;;;;;;;5.20;2.75;;;;;;;21.12;34.62;103510.75;7309997;19;130674;-65
2022/01/23 12:40:32;;;;;;;7.28;2.83;;;;;;;21.13;34.99;103499.41;7306526;19;129941;-65
2022/01/23 12:43:08;;;;;;;5.82;2.90;;;;;;;21.16;34.83;103506.50;7309501;19;131199;-64
2022/01/23 12:46:05;;;;;;;4.80;2.90;;;;;;;21.17;35.00;103495.16;7305102;19;131358;-66
2022/01/23 12:48:36;;;;;;;11.00;2.80;;;;;;;21.19;34.66;103493.03;7307502;19;128969;-65
2022/01/23 12:51:13;;;;;;;5.20;2.78;;;;;;;21.20;34.84;103500.31;7309108;19;129653;-65
2022/01/23 12:53:45;;;;;;;3.72;2.92;;;;;;;21.21;34.69;103496.47;7307234;19;130592;-65
2022/01/23 12:56:21;;;;;;;7.18;3.28;;;;;;;21.25;34.96;103498.88;7310000;19;130659;-64
2022/01/23 12:58:59;;;;;;;9.13;2.88;;;;;;;21.25;34.87;103493.31;7305609;19;128925;-65
2022/01/23 13:01:28;;;;;;;8.10;3.05;;;;;;;21.26;34.96;103484.75;7309885;19;128860;-65
2022/01/23 13:04:02;;;;;;;12.77;3.05;;;;;;;21.28;34.73;103485.41;7304204;19;130615;-65
2022/01/23 13:06:42;;;;;;;7.43;2.67;;;;;;;21.29;35.03;103475.16;7308552;19;130598;-66
2022/01/23 13:12:14;;;;;;;6.50;2.72;;;;;;;21.29;34.79;103472.34;7308330;19;129208;-68
2022/01/23 13:31:49;;;;;;;6.47;3.20;;;;;;;21.18;34.55;103459.84;7306273;19;129049;-68
2022/01/23 13:34:22;;;;;;;6.20;3.25;;;;;;;21.15;34.72;103468.59;7306645;19;129199;-68
2022/01/23 13:37:13;;;;;;;8.13;2.78;;;;;;;21.12;35.08;103455.94;7305203;19;131394;-68
2022/01/23 13:39:48;;;;;;;7.32;2.95;;;;;;;21.09;35.15;103452.72;7304135;19;130656;-68
2022/01/23 13:42:46;;;;;;;3.92;3.08;;;;;;;21.08;35.09;103462.13;7307308;19;130124;-68
2022/01/23 13:54:15;;;;;;;4.37;2.70;;;;;;;20.97;34.98;103456.06;7304140;19;130642;-67
2022/01/23 13:59:49;;;;;;;4.78;2.95;;;;;;;20.99;34.97;103450.28;7304155;19;130680;-66
2022/01/23 14:02:22;;;;;;;7.32;2.95;;;;;;;21.06;34.70;103453.94;7309046;19;130614;-67
2022/01/23 14:05:17;;;;;;;6.30;3.03;;;;;;;21.13;35.03;103449.31;7303835;19;128887;-68
2022/01/23 14:07:52;;;;;;;7.15;2.85;;;;;;;21.26;34.98;103456.06;7303827;19;128855;-67
2022/01/23 14:10:22;;;;;;;5.95;2.72;;;;;;;21.35;34.66;103457.59;7306637;19;130578;-68
2022/01/23 14:12:53;;;;;;;3.70;2.45;;;;;;;21.46;34.29;103451.47;7301610;19;132148;-68
2022/01/23 14:15:23;;;;;;;4.43;2.75;;;;;;;21.55;34.17;103449.41;7305108;19;130225;-68
2022/01/23 14:17:56;;;;;;;11.25;3.72;;;;;;;21.65;34.32;103441.53;7299513;19;129105;-66
2022/01/23 14:20:23;;;;;;;6.28;3.30;;;;;;;21.71;33.83;103441.81;7307804;19;131264;-67
2022/01/23 14:22:52;;;;;;;11.23;3.30;;;;;;;21.75;34.17;103446.75;7301824;19;131625;-67
2022/01/23 14:25:23;;;;;;;9.23;3.08;;;;;;;21.80;34.12;103437.75;7305857;19;129269;-67
2022/01/23 14:28:08;;;;;;;6.50;3.03;;;;;;;21.88;33.74;103433.94;7303220;19;128968;-66
2022/01/23 14:30:48;;;;;;;8.32;2.85;;;;;;;21.93;33.59;103431.38;7303393;19;131019;-66
2022/01/23 14:33:22;;;;;;;4.03;2.92;;;;;;;21.98;33.36;103442.78;7303983;19;131180;-66
2022/01/23 14:35:50;;;;;;;10.90;3.45;;;;;;;22.01;33.30;103439.59;7304255;19;129798;-67
2022/01/23 14:38:25;;;;;;;6.43;3.60;;;;;;;22.03;33.55;103445.78;7307420;19;129036;-67
2022/01/23 14:40:57;;;;;;;7.72;3.70;;;;;;;22.06;33.02;103439.78;7301474;19;131362;-67
2022/01/23 14:43:50;;;;;;;7.68;3.88;;;;;;;22.07;32.98;103435.94;7307437;19;130530;-67
2022/01/23 14:46:18;;;;;;;6.60;3.78;;;;;;;22.09;32.96;103444.97;7299300;19;130226;-67
2022/01/23 14:48:48;;;;;;;6.68;3.85;;;;;;;22.13;32.75;103453.75;7305382;19;129646;-66
2022/01/23 14:51:22;;;;;;;11.30;3.55;;;;;;;22.13;33.13;103454.63;7303340;19;131544;-67
2022/01/23 14:53:50;;;;;;;6.57;3.60;;;;;;;22.16;32.87;103446.91;7304296;19;130816;-66
2022/01/23 14:56:20;;;;;;;6.95;3.45;;;;;;;22.19;32.82;103446.47;7305476;19;129940;-66